sensor_id;sensor_type;location;lat;lon;timestamp;temperature;humidity
9179;DHT22;71287;48.414;11.478;2023-07-31T00:00:13;16.50;99.50
9179;DHT22;71287;48.414;11.478;2023-07-31T00:02:40;16.50;99.80
9179;DHT22;71287;48.414;11.478;2023-07-31T00:05:08;16.50;99.90
9179;DHT22;71287;48.414;11.478;2023-07-31T00:07:35;16.40;99.90
9179;DHT22;71287;48.414;11.478;2023-07-31T00:10:02;16.40;99.90
9179;DHT22;71287;48.414;11.478;2023-07-31T00:12:30;16.40;99.90
9179;DHT22;71287;48.414;11.478;2023-07-31T00:14:57;16.30;99.90
9179;DHT22;71287;48.414;11.478;2023-07-31T00:17:23;16.30;99.90
9179;DHT22;71287;48.414;11.478;2023-07-31T00:19:50;16.20;99.90
9179;DHT22;71287;48.414;11.478;2023-07-31T00:22:17;16.20;99.90
9179;DHT22;71287;48.414;11.478;2023-07-31T00:24:44;16.10;99.90
9179;DHT22;71287;48.414;11.478;2023-07-31T00:27:10;16.10;99.90
9179;DHT22;71287;48.414;11.478;2023-07-31T00:29:39;16.00;99.90
9179;DHT22;71287;48.414;11.478;2023-07-31T00:32:06;16.00;99.90
9179;DHT22;71287;48.414;11.478;2023-07-31T00:34:33;16.00;99.90
9179;DHT22;71287;48.414;11.478;2023-07-31T00:37:00;15.90;99.90
9179;DHT22;71287;48.414;11.478;2023-07-31T00:39:27;15.90;99.90
9179;DHT22;71287;48.414;11.478;2023-07-31T00:41:54;15.90;99.90
9179;DHT22;71287;48.414;11.478;2023-07-31T00:44:20;15.90;99.90
9179;DHT22;71287;48.414;11.478;2023-07-31T00:46:49;15.90;99.90
9179;DHT22;71287;48.414;11.478;2023-07-31T00:49:15;15.80;99.90
9179;DHT22;71287;48.414;11.478;2023-07-31T00:51:42;15.80;99.90
9179;DHT22;71287;48.414;11.478;2023-07-31T00:54:09;15.80;99.90
9179;DHT22;71287;48.414;11.478;2023-07-31T00:56:38;15.80;99.90
9179;DHT22;71287;48.414;11.478;2023-07-31T00:59:04;15.80;99.90
9179;DHT22;71287;48.414;11.478;2023-07-31T01:01:30;15.80;99.90
9179;DHT22;71287;48.414;11.478;2023-07-31T01:03:58;15.80;99.90
9179;DHT22;71287;48.414;11.478;2023-07-31T01:06:33;15.70;99.90
9179;DHT22;71287;48.414;11.478;2023-07-31T01:09:05;15.70;99.90
9179;DHT22;71287;48.414;11.478;2023-07-31T01:11:46;15.70;99.90
9179;DHT22;71287;48.414;11.478;2023-07-31T01:14:14;15.60;99.90
9179;DHT22;71287;48.414;11.478;2023-07-31T01:16:41;15.60;99.90
9179;DHT22;71287;48.414;11.478;2023-07-31T01:19:10;15.60;99.90
9179;DHT22;71287;48.414;11.478;2023-07-31T01:27:14;15.50;99.90
9179;DHT22;71287;48.414;11.478;2023-07-31T01:29:47;15.50;99.90
9179;DHT22;71287;48.414;11.478;2023-07-31T01:32:18;15.50;99.90
9179;DHT22;71287;48.414;11.478;2023-07-31T01:34:45;15.50;99.90
9179;DHT22;71287;48.414;11.478;2023-07-31T01:37:13;15.40;99.90
9179;DHT22;71287;48.414;11.478;2023-07-31T01:39:39;15.40;99.90
9179;DHT22;71287;48.414;11.478;2023-07-31T01:42:06;15.40;99.90
9179;DHT22;71287;48.414;11.478;2023-07-31T01:44:35;15.40;99.90
9179;DHT22;71287;48.414;11.478;2023-07-31T01:47:02;15.40;99.90
9179;DHT22;71287;48.414;11.478;2023-07-31T01:49:29;15.40;99.90
9179;DHT22;71287;48.414;11.478;2023-07-31T01:51:55;15.40;99.90
9179;DHT22;71287;48.414;11.478;2023-07-31T01:54:22;15.40;99.90
9179;DHT22;71287;48.414;11.478;2023-07-31T01:56:49;15.40;99.90
9179;DHT22;71287;48.414;11.478;2023-07-31T01:59:16;15.30;99.90
9179;DHT22;71287;48.414;11.478;2023-07-31T02:01:44;15.30;99.90
9179;DHT22;71287;48.414;11.478;2023-07-31T02:04:10;15.40;99.90
9179;DHT22;71287;48.414;11.478;2023-07-31T02:06:38;15.30;99.90
9179;DHT22;71287;48.414;11.478;2023-07-31T02:09:05;15.40;99.90
9179;DHT22;71287;48.414;11.478;2023-07-31T02:11:32;15.40;99.90
9179;DHT22;71287;48.414;11.478;2023-07-31T02:13:59;15.40;99.90
9179;DHT22;71287;48.414;11.478;2023-07-31T02:16:26;15.40;99.90
9179;DHT22;71287;48.414;11.478;2023-07-31T02:18:54;15.30;99.90
9179;DHT22;71287;48.414;11.478;2023-07-31T02:21:21;15.30;99.90
9179;DHT22;71287;48.414;11.478;2023-07-31T02:23:47;15.30;99.90
9179;DHT22;71287;48.414;11.478;2023-07-31T02:26:14;15.30;99.90
9179;DHT22;71287;48.414;11.478;2023-07-31T02:28:41;15.20;99.90
9179;DHT22;71287;48.414;11.478;2023-07-31T02:31:08;15.20;99.90
9179;DHT22;71287;48.414;11.478;2023-07-31T02:33:35;15.20;99.90
9179;DHT22;71287;48.414;11.478;2023-07-31T02:36:04;15.10;99.90
9179;DHT22;71287;48.414;11.478;2023-07-31T02:38:30;15.10;99.90
9179;DHT22;71287;48.414;11.478;2023-07-31T02:40:57;15.10;99.90
9179;DHT22;71287;48.414;11.478;2023-07-31T02:43:24;15.00;99.90
9179;DHT22;71287;48.414;11.478;2023-07-31T02:45:51;15.00;99.90
9179;DHT22;71287;48.414;11.478;2023-07-31T02:48:18;15.00;99.90
9179;DHT22;71287;48.414;11.478;2023-07-31T02:50:45;14.90;99.90
9179;DHT22;71287;48.414;11.478;2023-07-31T02:53:13;14.90;99.90
9179;DHT22;71287;48.414;11.478;2023-07-31T02:55:41;14.90;99.90
9179;DHT22;71287;48.414;11.478;2023-07-31T02:58:07;14.90;99.90
9179;DHT22;71287;48.414;11.478;2023-07-31T03:00:34;14.80;99.90
9179;DHT22;71287;48.414;11.478;2023-07-31T03:03:01;14.80;99.90
9179;DHT22;71287;48.414;11.478;2023-07-31T03:05:27;14.70;99.90
9179;DHT22;71287;48.414;11.478;2023-07-31T03:07:54;14.70;99.90
9179;DHT22;71287;48.414;11.478;2023-07-31T03:10:22;14.70;99.90
9179;DHT22;71287;48.414;11.478;2023-07-31T03:12:49;14.70;99.90
9179;DHT22;71287;48.414;11.478;2023-07-31T03:15:16;14.60;99.90
9179;DHT22;71287;48.414;11.478;2023-07-31T03:17:43;14.60;99.90
9179;DHT22;71287;48.414;11.478;2023-07-31T03:20:10;14.50;99.90
9179;DHT22;71287;48.414;11.478;2023-07-31T03:22:37;14.40;99.90
9179;DHT22;71287;48.414;11.478;2023-07-31T03:25:05;14.40;99.90
9179;DHT22;71287;48.414;11.478;2023-07-31T03:27:33;14.40;99.90
9179;DHT22;71287;48.414;11.478;2023-07-31T03:30:00;14.40;99.90
9179;DHT22;71287;48.414;11.478;2023-07-31T03:32:27;14.40;99.90
9179;DHT22;71287;48.414;11.478;2023-07-31T03:34:54;14.40;99.90
9179;DHT22;71287;48.414;11.478;2023-07-31T03:37:20;14.30;99.90
9179;DHT22;71287;48.414;11.478;2023-07-31T03:39:47;14.30;99.90
9179;DHT22;71287;48.414;11.478;2023-07-31T03:42:14;14.30;99.90
9179;DHT22;71287;48.414;11.478;2023-07-31T03:44:42;14.30;99.90
9179;DHT22;71287;48.414;11.478;2023-07-31T03:47:09;14.30;99.90
9179;DHT22;71287;48.414;11.478;2023-07-31T03:49:36;14.30;99.90
9179;DHT22;71287;48.414;11.478;2023-07-31T03:52:03;14.30;99.90
9179;DHT22;71287;48.414;11.478;2023-07-31T03:54:30;14.30;99.90
9179;DHT22;71287;48.414;11.478;2023-07-31T03:56:57;14.40;99.90
9179;DHT22;71287;48.414;11.478;2023-07-31T03:59:23;14.30;99.90
9179;DHT22;71287;48.414;11.478;2023-07-31T04:01:51;14.30;99.90
9179;DHT22;71287;48.414;11.478;2023-07-31T04:04:18;14.30;99.90
9179;DHT22;71287;48.414;11.478;2023-07-31T04:06:45;14.30;99.90
9179;DHT22;71287;48.414;11.478;2023-07-31T04:09:12;14.30;99.90
9179;DHT22;71287;48.414;11.478;2023-07-31T04:11:38;14.30;99.90
9179;DHT22;71287;48.414;11.478;2023-07-31T04:14:05;14.30;99.90
9179;DHT22;71287;48.414;11.478;2023-07-31T04:16:32;14.40;99.90
9179;DHT22;71287;48.414;11.478;2023-07-31T04:19:00;14.40;99.90
9179;DHT22;71287;48.414;11.478;2023-07-31T04:21:28;14.50;99.90
9179;DHT22;71287;48.414;11.478;2023-07-31T04:23:55;14.50;99.90
9179;DHT22;71287;48.414;11.478;2023-07-31T04:26:23;14.50;99.90
9179;DHT22;71287;48.414;11.478;2023-07-31T04:28:50;14.40;99.90
9179;DHT22;71287;48.414;11.478;2023-07-31T04:31:17;14.50;99.90
9179;DHT22;71287;48.414;11.478;2023-07-31T04:33:44;14.50;99.90
9179;DHT22;71287;48.414;11.478;2023-07-31T04:36:12;14.50;99.90
9179;DHT22;71287;48.414;11.478;2023-07-31T04:38:38;14.50;99.90
9179;DHT22;71287;48.414;11.478;2023-07-31T04:41:06;14.60;99.90
9179;DHT22;71287;48.414;11.478;2023-07-31T04:43:33;14.70;99.90
9179;DHT22;71287;48.414;11.478;2023-07-31T04:46:00;14.80;99.90
9179;DHT22;71287;48.414;11.478;2023-07-31T04:48:26;14.80;99.90
9179;DHT22;71287;48.414;11.478;2023-07-31T04:50:53;14.90;99.90
9179;DHT22;71287;48.414;11.478;2023-07-31T04:53:21;14.90;99.90
9179;DHT22;71287;48.414;11.478;2023-07-31T04:55:48;14.90;99.90
9179;DHT22;71287;48.414;11.478;2023-07-31T04:58:15;14.90;99.90
9179;DHT22;71287;48.414;11.478;2023-07-31T05:00:41;14.90;99.90
9179;DHT22;71287;48.414;11.478;2023-07-31T05:03:08;15.00;99.90
9179;DHT22;71287;48.414;11.478;2023-07-31T05:05:36;15.10;99.90
9179;DHT22;71287;48.414;11.478;2023-07-31T05:08:03;15.20;99.90
9179;DHT22;71287;48.414;11.478;2023-07-31T05:10:31;15.30;99.90
9179;DHT22;71287;48.414;11.478;2023-07-31T05:12:58;15.50;99.90
9179;DHT22;71287;48.414;11.478;2023-07-31T05:15:25;16.40;99.90
9179;DHT22;71287;48.414;11.478;2023-07-31T05:17:51;17.60;99.90
9179;DHT22;71287;48.414;11.478;2023-07-31T05:20:18;18.80;99.90
9179;DHT22;71287;48.414;11.478;2023-07-31T05:22:45;19.90;99.90
9179;DHT22;71287;48.414;11.478;2023-07-31T05:25:12;20.60;99.90
9179;DHT22;71287;48.414;11.478;2023-07-31T05:27:40;20.70;99.90
9179;DHT22;71287;48.414;11.478;2023-07-31T05:30:07;20.60;99.90
9179;DHT22;71287;48.414;11.478;2023-07-31T05:32:34;20.50;99.90
9179;DHT22;71287;48.414;11.478;2023-07-31T05:35:01;20.40;99.90
9179;DHT22;71287;48.414;11.478;2023-07-31T05:37:28;20.30;99.90
9179;DHT22;71287;48.414;11.478;2023-07-31T05:39:55;20.20;99.90
9179;DHT22;71287;48.414;11.478;2023-07-31T05:42:22;20.20;99.90
9179;DHT22;71287;48.414;11.478;2023-07-31T05:44:50;20.20;99.90
9179;DHT22;71287;48.414;11.478;2023-07-31T05:47:17;20.20;99.90
9179;DHT22;71287;48.414;11.478;2023-07-31T05:49:44;20.20;99.90
9179;DHT22;71287;48.414;11.478;2023-07-31T05:52:10;20.20;99.90
9179;DHT22;71287;48.414;11.478;2023-07-31T05:54:37;20.10;99.90
9179;DHT22;71287;48.414;11.478;2023-07-31T05:57:04;20.10;99.90
9179;DHT22;71287;48.414;11.478;2023-07-31T05:59:31;20.00;99.90
9179;DHT22;71287;48.414;11.478;2023-07-31T06:02:00;19.90;99.90
9179;DHT22;71287;48.414;11.478;2023-07-31T06:04:26;19.80;99.90
9179;DHT22;71287;48.414;11.478;2023-07-31T06:06:53;19.70;99.90
9179;DHT22;71287;48.414;11.478;2023-07-31T06:09:21;19.70;99.90
9179;DHT22;71287;48.414;11.478;2023-07-31T06:11:47;19.70;99.90
9179;DHT22;71287;48.414;11.478;2023-07-31T06:14:14;19.70;99.90
9179;DHT22;71287;48.414;11.478;2023-07-31T06:16:41;19.70;99.90
9179;DHT22;71287;48.414;11.478;2023-07-31T06:19:10;19.80;99.90
9179;DHT22;71287;48.414;11.478;2023-07-31T06:21:38;20.20;99.90
9179;DHT22;71287;48.414;11.478;2023-07-31T06:24:05;20.70;99.90
9179;DHT22;71287;48.414;11.478;2023-07-31T06:26:32;21.20;99.90
9179;DHT22;71287;48.414;11.478;2023-07-31T06:28:59;21.70;99.90
9179;DHT22;71287;48.414;11.478;2023-07-31T06:31:26;22.10;99.90
9179;DHT22;71287;48.414;11.478;2023-07-31T06:33:54;22.30;99.90
9179;DHT22;71287;48.414;11.478;2023-07-31T06:36:22;22.50;99.90
9179;DHT22;71287;48.414;11.478;2023-07-31T06:38:49;22.60;99.90
9179;DHT22;71287;48.414;11.478;2023-07-31T06:41:15;22.60;99.40
9179;DHT22;71287;48.414;11.478;2023-07-31T06:43:42;22.70;98.90
9179;DHT22;71287;48.414;11.478;2023-07-31T06:46:09;22.80;98.70
9179;DHT22;71287;48.414;11.478;2023-07-31T06:48:36;22.90;98.30
9179;DHT22;71287;48.414;11.478;2023-07-31T06:51:03;23.20;98.20
9179;DHT22;71287;48.414;11.478;2023-07-31T06:53:31;23.60;97.60
9179;DHT22;71287;48.414;11.478;2023-07-31T06:55:58;24.00;96.80
9179;DHT22;71287;48.414;11.478;2023-07-31T06:58:24;24.40;95.50
9179;DHT22;71287;48.414;11.478;2023-07-31T07:00:51;24.70;94.50
9179;DHT22;71287;48.414;11.478;2023-07-31T07:03:18;25.30;93.50
9179;DHT22;71287;48.414;11.478;2023-07-31T07:05:46;25.70;92.40
9179;DHT22;71287;48.414;11.478;2023-07-31T07:08:12;25.80;91.70
9179;DHT22;71287;48.414;11.478;2023-07-31T07:10:41;25.80;90.80
9179;DHT22;71287;48.414;11.478;2023-07-31T07:13:08;25.60;90.10
9179;DHT22;71287;48.414;11.478;2023-07-31T07:15:35;25.50;90.00
9179;DHT22;71287;48.414;11.478;2023-07-31T07:18:02;25.30;90.20
9179;DHT22;71287;48.414;11.478;2023-07-31T07:20:29;25.20;90.40
9179;DHT22;71287;48.414;11.478;2023-07-31T07:22:55;25.00;90.50
9179;DHT22;71287;48.414;11.478;2023-07-31T07:25:22;24.90;90.30
9179;DHT22;71287;48.414;11.478;2023-07-31T07:27:50;25.00;90.00
9179;DHT22;71287;48.414;11.478;2023-07-31T07:30:17;25.20;89.10
9179;DHT22;71287;48.414;11.478;2023-07-31T07:32:45;26.00;88.90
9179;DHT22;71287;48.414;11.478;2023-07-31T07:35:12;27.80;86.00
9179;DHT22;71287;48.414;11.478;2023-07-31T07:37:38;29.80;81.20
9179;DHT22;71287;48.414;11.478;2023-07-31T07:40:06;31.50;75.50
9179;DHT22;71287;48.414;11.478;2023-07-31T07:42:33;33.10;68.30
9179;DHT22;71287;48.414;11.478;2023-07-31T07:45:02;34.40;61.40
9179;DHT22;71287;48.414;11.478;2023-07-31T07:47:29;35.10;56.90
9179;DHT22;71287;48.414;11.478;2023-07-31T07:49:55;35.70;54.40
9179;DHT22;71287;48.414;11.478;2023-07-31T07:52:22;35.70;52.90
9179;DHT22;71287;48.414;11.478;2023-07-31T07:54:49;35.30;52.00
9179;DHT22;71287;48.414;11.478;2023-07-31T07:57:16;35.00;51.50
9179;DHT22;71287;48.414;11.478;2023-07-31T07:59:44;34.80;52.20
9179;DHT22;71287;48.414;11.478;2023-07-31T08:02:12;35.20;51.40
9179;DHT22;71287;48.414;11.478;2023-07-31T08:04:38;35.50;50.80
9179;DHT22;71287;48.414;11.478;2023-07-31T08:07:05;36.30;48.60
9179;DHT22;71287;48.414;11.478;2023-07-31T08:09:32;36.30;47.30
9179;DHT22;71287;48.414;11.478;2023-07-31T08:11:59;36.20;47.20
9179;DHT22;71287;48.414;11.478;2023-07-31T08:14:28;35.90;47.00
9179;DHT22;71287;48.414;11.478;2023-07-31T08:16:55;35.60;47.00
9179;DHT22;71287;48.414;11.478;2023-07-31T08:19:23;35.40;47.60
9179;DHT22;71287;48.414;11.478;2023-07-31T08:21:50;35.20;48.00
9179;DHT22;71287;48.414;11.478;2023-07-31T08:24:17;34.80;48.30
9179;DHT22;71287;48.414;11.478;2023-07-31T08:26:44;34.10;49.30
9179;DHT22;71287;48.414;11.478;2023-07-31T08:29:10;33.30;49.90
9179;DHT22;71287;48.414;11.478;2023-07-31T08:31:37;32.50;51.10
9179;DHT22;71287;48.414;11.478;2023-07-31T08:34:04;31.80;51.90
9179;DHT22;71287;48.414;11.478;2023-07-31T08:36:32;31.20;53.30
9179;DHT22;71287;48.414;11.478;2023-07-31T08:38:59;30.50;54.60
9179;DHT22;71287;48.414;11.478;2023-07-31T08:41:27;29.90;55.20
9179;DHT22;71287;48.414;11.478;2023-07-31T08:43:55;29.50;55.90
9179;DHT22;71287;48.414;11.478;2023-07-31T08:46:23;29.00;56.80
9179;DHT22;71287;48.414;11.478;2023-07-31T08:48:51;28.60;57.20
9179;DHT22;71287;48.414;11.478;2023-07-31T08:51:19;28.20;57.40
9179;DHT22;71287;48.414;11.478;2023-07-31T08:53:47;27.80;57.60
9179;DHT22;71287;48.414;11.478;2023-07-31T08:56:15;27.50;58.20
9179;DHT22;71287;48.414;11.478;2023-07-31T08:58:43;27.10;57.70
9179;DHT22;71287;48.414;11.478;2023-07-31T09:01:10;26.80;58.00
9179;DHT22;71287;48.414;11.478;2023-07-31T09:03:39;26.50;58.60
9179;DHT22;71287;48.414;11.478;2023-07-31T09:06:07;26.30;59.10
9179;DHT22;71287;48.414;11.478;2023-07-31T09:08:34;26.10;59.80
9179;DHT22;71287;48.414;11.478;2023-07-31T09:11:03;26.00;59.30
9179;DHT22;71287;48.414;11.478;2023-07-31T09:13:31;25.90;61.30
9179;DHT22;71287;48.414;11.478;2023-07-31T09:15:58;25.90;61.50
9179;DHT22;71287;48.414;11.478;2023-07-31T09:18:25;26.00;61.30
9179;DHT22;71287;48.414;11.478;2023-07-31T09:21:02;26.00;60.70
9179;DHT22;71287;48.414;11.478;2023-07-31T09:23:40;26.10;60.80
9179;DHT22;71287;48.414;11.478;2023-07-31T09:26:09;26.00;60.80
9179;DHT22;71287;48.414;11.478;2023-07-31T09:28:36;25.90;60.90
9179;DHT22;71287;48.414;11.478;2023-07-31T09:31:03;25.80;61.80
9179;DHT22;71287;48.414;11.478;2023-07-31T09:33:30;25.70;61.10
9179;DHT22;71287;48.414;11.478;2023-07-31T09:35:58;25.70;60.70
9179;DHT22;71287;48.414;11.478;2023-07-31T09:38:26;25.90;61.50
9179;DHT22;71287;48.414;11.478;2023-07-31T09:40:52;26.00;60.50
9179;DHT22;71287;48.414;11.478;2023-07-31T09:43:22;26.20;60.90
9179;DHT22;71287;48.414;11.478;2023-07-31T09:45:57;26.50;61.90
9179;DHT22;71287;48.414;11.478;2023-07-31T09:48:24;26.80;62.10
9179;DHT22;71287;48.414;11.478;2023-07-31T09:50:53;26.80;62.40
9179;DHT22;71287;48.414;11.478;2023-07-31T09:53:28;26.90;61.60
9179;DHT22;71287;48.414;11.478;2023-07-31T09:55:56;27.00;61.50
9179;DHT22;71287;48.414;11.478;2023-07-31T09:58:28;26.80;60.90
9179;DHT22;71287;48.414;11.478;2023-07-31T10:00:57;26.70;60.20
9179;DHT22;71287;48.414;11.478;2023-07-31T10:03:25;26.50;60.50
9179;DHT22;71287;48.414;11.478;2023-07-31T10:05:53;26.60;62.20
9179;DHT22;71287;48.414;11.478;2023-07-31T10:08:27;26.60;62.20
9179;DHT22;71287;48.414;11.478;2023-07-31T10:10:58;26.70;62.00
9179;DHT22;71287;48.414;11.478;2023-07-31T10:13:28;26.80;61.20
9179;DHT22;71287;48.414;11.478;2023-07-31T10:15:59;27.10;61.60
9179;DHT22;71287;48.414;11.478;2023-07-31T10:18:26;27.30;61.00
9179;DHT22;71287;48.414;11.478;2023-07-31T10:20:54;27.40;60.10
9179;DHT22;71287;48.414;11.478;2023-07-31T10:23:22;27.60;60.00
9179;DHT22;71287;48.414;11.478;2023-07-31T10:25:50;27.70;59.90
9179;DHT22;71287;48.414;11.478;2023-07-31T10:28:18;27.70;59.30
9179;DHT22;71287;48.414;11.478;2023-07-31T10:30:46;27.60;59.80
9179;DHT22;71287;48.414;11.478;2023-07-31T10:33:14;27.50;59.00
9179;DHT22;71287;48.414;11.478;2023-07-31T10:35:41;27.40;58.80
9179;DHT22;71287;48.414;11.478;2023-07-31T10:38:12;27.40;59.80
9179;DHT22;71287;48.414;11.478;2023-07-31T10:40:39;27.40;59.30
9179;DHT22;71287;48.414;11.478;2023-07-31T10:43:06;27.40;59.70
9179;DHT22;71287;48.414;11.478;2023-07-31T10:45:36;27.40;59.90
9179;DHT22;71287;48.414;11.478;2023-07-31T10:48:06;27.30;59.10
9179;DHT22;71287;48.414;11.478;2023-07-31T10:50:37;27.30;59.60
9179;DHT22;71287;48.414;11.478;2023-07-31T10:53:04;27.40;58.70
9179;DHT22;71287;48.414;11.478;2023-07-31T10:55:38;27.60;60.00
9179;DHT22;71287;48.414;11.478;2023-07-31T10:58:07;27.90;60.60
9179;DHT22;71287;48.414;11.478;2023-07-31T11:00:36;28.00;60.80
9179;DHT22;71287;48.414;11.478;2023-07-31T11:03:06;28.00;59.50
9179;DHT22;71287;48.414;11.478;2023-07-31T11:05:48;28.00;59.90
9179;DHT22;71287;48.414;11.478;2023-07-31T11:08:17;28.00;60.10
9179;DHT22;71287;48.414;11.478;2023-07-31T11:10:46;28.00;59.90
9179;DHT22;71287;48.414;11.478;2023-07-31T11:13:13;27.80;58.90
9179;DHT22;71287;48.414;11.478;2023-07-31T11:15:40;27.80;58.90
9179;DHT22;71287;48.414;11.478;2023-07-31T11:18:08;27.80;59.80
9179;DHT22;71287;48.414;11.478;2023-07-31T11:20:37;27.60;60.30
9179;DHT22;71287;48.414;11.478;2023-07-31T11:23:07;27.40;60.90
9179;DHT22;71287;48.414;11.478;2023-07-31T11:25:35;27.30;62.20
9179;DHT22;71287;48.414;11.478;2023-07-31T11:28:05;27.50;63.60
9179;DHT22;71287;48.414;11.478;2023-07-31T11:30:33;27.70;61.70
9179;DHT22;71287;48.414;11.478;2023-07-31T11:33:01;27.80;59.70
9179;DHT22;71287;48.414;11.478;2023-07-31T11:35:31;27.80;58.80
9179;DHT22;71287;48.414;11.478;2023-07-31T11:37:58;27.70;58.60
9179;DHT22;71287;48.414;11.478;2023-07-31T11:40:25;27.70;58.10
9179;DHT22;71287;48.414;11.478;2023-07-31T11:42:55;27.60;58.40
9179;DHT22;71287;48.414;11.478;2023-07-31T11:45:25;27.60;59.40
9179;DHT22;71287;48.414;11.478;2023-07-31T11:47:54;27.60;61.80
9179;DHT22;71287;48.414;11.478;2023-07-31T11:50:21;27.60;60.00
9179;DHT22;71287;48.414;11.478;2023-07-31T11:52:53;27.50;59.70
9179;DHT22;71287;48.414;11.478;2023-07-31T11:55:22;27.50;59.10
9179;DHT22;71287;48.414;11.478;2023-07-31T11:57:49;27.40;58.60
9179;DHT22;71287;48.414;11.478;2023-07-31T12:00:17;27.20;59.40
9179;DHT22;71287;48.414;11.478;2023-07-31T12:02:44;27.10;61.00
9179;DHT22;71287;48.414;11.478;2023-07-31T12:05:12;27.00;60.80
9179;DHT22;71287;48.414;11.478;2023-07-31T12:07:46;27.00;60.70
9179;DHT22;71287;48.414;11.478;2023-07-31T12:10:24;27.00;60.50
9179;DHT22;71287;48.414;11.478;2023-07-31T12:13:00;27.00;60.60
9179;DHT22;71287;48.414;11.478;2023-07-31T12:15:35;27.10;60.40
9179;DHT22;71287;48.414;11.478;2023-07-31T12:18:04;27.20;60.60
9179;DHT22;71287;48.414;11.478;2023-07-31T12:20:32;27.30;60.20
9179;DHT22;71287;48.414;11.478;2023-07-31T12:22:59;27.40;60.30
9179;DHT22;71287;48.414;11.478;2023-07-31T12:25:31;27.40;59.40
9179;DHT22;71287;48.414;11.478;2023-07-31T12:28:04;27.40;59.30
9179;DHT22;71287;48.414;11.478;2023-07-31T12:30:32;27.60;59.80
9179;DHT22;71287;48.414;11.478;2023-07-31T12:33:03;27.90;61.90
9179;DHT22;71287;48.414;11.478;2023-07-31T12:35:35;28.10;60.10
9179;DHT22;71287;48.414;11.478;2023-07-31T12:38:02;28.40;60.10
9179;DHT22;71287;48.414;11.478;2023-07-31T12:40:30;28.50;60.10
9179;DHT22;71287;48.414;11.478;2023-07-31T12:42:57;28.50;59.60
9179;DHT22;71287;48.414;11.478;2023-07-31T12:45:24;28.40;58.50
9179;DHT22;71287;48.414;11.478;2023-07-31T12:47:51;28.30;58.50
9179;DHT22;71287;48.414;11.478;2023-07-31T12:50:17;28.20;58.40
9179;DHT22;71287;48.414;11.478;2023-07-31T12:52:44;28.10;58.30
9179;DHT22;71287;48.414;11.478;2023-07-31T12:55:11;28.00;58.70
9179;DHT22;71287;48.414;11.478;2023-07-31T12:57:39;27.80;58.90
9179;DHT22;71287;48.414;11.478;2023-07-31T13:00:07;27.70;59.40
9179;DHT22;71287;48.414;11.478;2023-07-31T13:02:34;27.70;58.70
9179;DHT22;71287;48.414;11.478;2023-07-31T13:05:01;27.80;59.10
9179;DHT22;71287;48.414;11.478;2023-07-31T13:07:28;27.80;59.40
9179;DHT22;71287;48.414;11.478;2023-07-31T13:09:54;27.80;58.10
9179;DHT22;71287;48.414;11.478;2023-07-31T13:12:21;27.80;58.40
9179;DHT22;71287;48.414;11.478;2023-07-31T13:14:50;27.80;59.10
9179;DHT22;71287;48.414;11.478;2023-07-31T13:17:17;27.80;59.10
9179;DHT22;71287;48.414;11.478;2023-07-31T13:19:44;28.00;60.10
9179;DHT22;71287;48.414;11.478;2023-07-31T13:22:11;28.30;59.80
9179;DHT22;71287;48.414;11.478;2023-07-31T13:24:38;28.40;59.50
9179;DHT22;71287;48.414;11.478;2023-07-31T13:27:04;28.40;58.80
9179;DHT22;71287;48.414;11.478;2023-07-31T13:29:31;28.20;58.10
9179;DHT22;71287;48.414;11.478;2023-07-31T13:32:00;28.10;59.90
9179;DHT22;71287;48.414;11.478;2023-07-31T13:34:26;28.10;58.90
9179;DHT22;71287;48.414;11.478;2023-07-31T13:36:54;28.00;59.20
9179;DHT22;71287;48.414;11.478;2023-07-31T13:39:22;27.90;59.70
9179;DHT22;71287;48.414;11.478;2023-07-31T13:41:48;27.70;59.30
9179;DHT22;71287;48.414;11.478;2023-07-31T13:44:15;27.40;59.70
9179;DHT22;71287;48.414;11.478;2023-07-31T13:46:42;27.40;60.20
9179;DHT22;71287;48.414;11.478;2023-07-31T13:49:10;27.30;61.80
9179;DHT22;71287;48.414;11.478;2023-07-31T13:51:37;27.20;61.90
9179;DHT22;71287;48.414;11.478;2023-07-31T13:54:05;27.20;61.50
9179;DHT22;71287;48.414;11.478;2023-07-31T13:56:33;27.00;61.00
9179;DHT22;71287;48.414;11.478;2023-07-31T13:59:00;27.00;60.00
9179;DHT22;71287;48.414;11.478;2023-07-31T14:01:27;27.00;59.70
9179;DHT22;71287;48.414;11.478;2023-07-31T14:03:53;27.00;60.30
9179;DHT22;71287;48.414;11.478;2023-07-31T14:06:22;27.00;61.60
9179;DHT22;71287;48.414;11.478;2023-07-31T14:08:48;27.00;61.40
9179;DHT22;71287;48.414;11.478;2023-07-31T14:11:15;27.10;61.00
9179;DHT22;71287;48.414;11.478;2023-07-31T14:13:42;27.00;61.10
9179;DHT22;71287;48.414;11.478;2023-07-31T14:16:09;26.90;62.40
9179;DHT22;71287;48.414;11.478;2023-07-31T14:18:35;26.90;62.00
9179;DHT22;71287;48.414;11.478;2023-07-31T14:21:02;26.80;60.40
9179;DHT22;71287;48.414;11.478;2023-07-31T14:23:30;26.70;59.30
9179;DHT22;71287;48.414;11.478;2023-07-31T14:25:57;26.70;59.80
9179;DHT22;71287;48.414;11.478;2023-07-31T14:28:24;26.70;60.70
9179;DHT22;71287;48.414;11.478;2023-07-31T14:30:51;26.70;60.80
9179;DHT22;71287;48.414;11.478;2023-07-31T14:33:18;26.70;60.80
9179;DHT22;71287;48.414;11.478;2023-07-31T14:35:44;26.70;60.60
9179;DHT22;71287;48.414;11.478;2023-07-31T14:38:11;26.60;60.50
9179;DHT22;71287;48.414;11.478;2023-07-31T14:40:39;26.60;60.80
9179;DHT22;71287;48.414;11.478;2023-07-31T14:43:06;26.60;60.90
9179;DHT22;71287;48.414;11.478;2023-07-31T14:45:33;26.70;60.00
9179;DHT22;71287;48.414;11.478;2023-07-31T14:48:00;26.70;59.10
9179;DHT22;71287;48.414;11.478;2023-07-31T14:50:27;26.80;59.50
9179;DHT22;71287;48.414;11.478;2023-07-31T14:52:54;26.90;58.80
9179;DHT22;71287;48.414;11.478;2023-07-31T14:55:20;26.90;58.60
9179;DHT22;71287;48.414;11.478;2023-07-31T14:57:49;26.80;58.80
9179;DHT22;71287;48.414;11.478;2023-07-31T15:00:15;26.80;58.90
9179;DHT22;71287;48.414;11.478;2023-07-31T15:02:42;26.70;59.40
9179;DHT22;71287;48.414;11.478;2023-07-31T15:05:09;26.60;60.00
9179;DHT22;71287;48.414;11.478;2023-07-31T15:07:36;26.60;59.80
9179;DHT22;71287;48.414;11.478;2023-07-31T15:10:03;26.60;60.10
9179;DHT22;71287;48.414;11.478;2023-07-31T15:12:31;26.60;60.30
9179;DHT22;71287;48.414;11.478;2023-07-31T15:14:59;26.50;61.10
9179;DHT22;71287;48.414;11.478;2023-07-31T15:17:26;26.50;62.20
9179;DHT22;71287;48.414;11.478;2023-07-31T15:19:54;26.40;62.30
9179;DHT22;71287;48.414;11.478;2023-07-31T15:22:20;26.30;61.90
9179;DHT22;71287;48.414;11.478;2023-07-31T15:24:47;26.30;61.30
9179;DHT22;71287;48.414;11.478;2023-07-31T15:27:15;26.20;61.60
9179;DHT22;71287;48.414;11.478;2023-07-31T15:29:41;26.20;62.00
9179;DHT22;71287;48.414;11.478;2023-07-31T15:32:10;26.10;63.20
9179;DHT22;71287;48.414;11.478;2023-07-31T15:34:36;26.00;62.40
9179;DHT22;71287;48.414;11.478;2023-07-31T15:37:03;25.90;62.20